createdAt,value
2017-12-19T00:02:07.272Z,9.32
2017-12-19T00:04:34.922Z,10.23
2017-12-19T00:07:02.857Z,9.45
2017-12-19T00:09:30.684Z,9.13
2017-12-19T00:11:58.556Z,8.38
2017-12-19T00:14:26.202Z,9.38
2017-12-19T00:16:53.815Z,9.30
2017-12-19T00:19:22.249Z,9.18
2017-12-19T00:21:49.879Z,9.30
2017-12-19T00:24:17.470Z,10.10
2017-12-19T00:26:45.240Z,9.18
2017-12-19T00:29:12.832Z,9.30
2017-12-19T00:31:40.395Z,9.30
2017-12-19T00:34:07.942Z,9.57
2017-12-19T00:36:35.522Z,10.20
2017-12-19T00:39:03.098Z,8.60
2017-12-19T00:41:32.243Z,10.68
2017-12-19T00:43:59.825Z,8.88
2017-12-19T00:46:27.386Z,8.70
2017-12-19T00:48:54.968Z,9.57
2017-12-19T00:51:23.295Z,10.18
2017-12-19T00:53:50.839Z,9.67
2017-12-19T00:56:18.619Z,8.37
2017-12-19T00:58:46.163Z,8.53
2017-12-19T01:01:13.714Z,9.30
2017-12-19T01:03:41.296Z,9.27
2017-12-19T01:06:08.854Z,8.65
2017-12-19T01:08:36.398Z,9.50
2017-12-19T01:11:03.993Z,7.85
2017-12-19T01:13:31.539Z,9.20
2017-12-19T01:15:59.087Z,9.65
2017-12-19T01:18:26.670Z,9.20
2017-12-19T01:20:54.230Z,10.20
2017-12-19T01:23:21.782Z,8.73
2017-12-19T01:25:49.359Z,9.95
2017-12-19T01:28:16.929Z,9.48
2017-12-19T01:30:44.487Z,8.95
2017-12-19T01:33:12.073Z,9.38
2017-12-19T01:35:39.624Z,7.90
2017-12-19T01:38:07.187Z,9.18
2017-12-19T01:40:34.808Z,9.98
2017-12-19T01:43:02.426Z,8.60
2017-12-19T01:45:30.763Z,8.90
2017-12-19T01:47:58.342Z,10.38
2017-12-19T01:50:25.894Z,9.82
2017-12-19T01:52:53.478Z,9.05
2017-12-19T01:55:21.033Z,9.90
2017-12-19T01:57:49.358Z,8.23
2017-12-19T02:00:16.947Z,10.50
2017-12-19T02:02:44.511Z,9.27
2017-12-19T02:05:12.087Z,9.32
2017-12-19T02:07:39.673Z,10.15
2017-12-19T02:10:08.091Z,9.40
2017-12-19T02:12:35.696Z,9.30
2017-12-19T02:15:03.298Z,10.07
2017-12-19T02:17:30.858Z,8.43
2017-12-19T02:19:58.410Z,8.80
2017-12-19T02:22:25.994Z,8.43
2017-12-19T02:24:53.545Z,9.80
2017-12-19T02:27:21.131Z,10.35
2017-12-19T02:29:48.694Z,10.65
2017-12-19T02:32:16.283Z,11.17
2017-12-19T02:34:43.823Z,9.67
2017-12-19T02:37:11.399Z,9.77
2017-12-19T02:39:38.980Z,9.40
2017-12-19T02:42:07.325Z,10.65
2017-12-19T02:44:34.879Z,9.90
2017-12-19T02:47:08.588Z,11.30
2017-12-19T02:49:36.142Z,9.32
2017-12-19T02:52:03.779Z,9.73
2017-12-19T02:54:31.344Z,9.27
2017-12-19T02:56:58.903Z,10.18
2017-12-19T02:59:26.515Z,8.70
2017-12-19T03:01:54.845Z,9.95
2017-12-19T03:04:22.405Z,8.50
2017-12-19T03:06:49.986Z,9.60
2017-12-19T03:09:17.549Z,10.30
2017-12-19T03:11:45.103Z,10.40
2017-12-19T03:14:12.692Z,9.45
2017-12-19T03:16:40.265Z,8.98
2017-12-19T03:19:08.588Z,9.33
2017-12-19T03:21:36.170Z,9.38
2017-12-19T03:24:03.740Z,9.05
2017-12-19T03:26:31.307Z,9.20
2017-12-19T03:28:58.884Z,8.00
2017-12-19T03:31:27.210Z,8.85
2017-12-19T03:33:54.775Z,9.48
2017-12-19T03:36:22.363Z,10.98
2017-12-19T03:38:49.916Z,9.60
2017-12-19T03:41:17.503Z,9.48
2017-12-19T03:43:45.060Z,10.32
2017-12-19T03:46:13.384Z,9.00
2017-12-19T03:48:40.976Z,10.02
2017-12-19T03:51:08.549Z,8.98
2017-12-19T03:53:36.125Z,9.38
2017-12-19T03:56:04.484Z,9.90
2017-12-19T03:58:32.042Z,11.55
2017-12-19T04:00:59.637Z,10.63
2017-12-19T04:03:27.198Z,8.38
2017-12-19T04:05:54.754Z,10.07
2017-12-19T04:08:22.346Z,9.77
2017-12-19T04:10:49.927Z,9.65
2017-12-19T04:13:17.495Z,10.13
2017-12-19T04:15:45.086Z,9.57
2017-12-19T04:18:13.623Z,10.27
2017-12-19T04:20:41.182Z,10.13
2017-12-19T04:23:08.762Z,9.63
2017-12-19T04:25:36.404Z,9.80
2017-12-19T04:28:04.029Z,11.40
2017-12-19T04:30:31.595Z,10.57
2017-12-19T04:32:59.152Z,11.52
2017-12-19T04:35:26.748Z,9.90
2017-12-19T04:37:54.310Z,8.77
2017-12-19T04:40:21.866Z,8.88
2017-12-19T04:42:49.443Z,9.53
2017-12-19T04:45:16.996Z,9.50
2017-12-19T04:47:44.550Z,10.17
2017-12-19T04:50:12.134Z,9.75
2017-12-19T04:52:39.692Z,10.70
2017-12-19T04:55:07.252Z,10.83
2017-12-19T04:57:34.851Z,11.10
2017-12-19T05:00:03.223Z,11.20
2017-12-19T05:02:30.782Z,11.33
2017-12-19T05:04:59.135Z,10.40
2017-12-19T05:07:26.754Z,10.45
2017-12-19T05:09:54.319Z,10.43
2017-12-19T05:12:21.950Z,12.95
2017-12-19T05:14:50.274Z,12.43
2017-12-19T05:17:17.851Z,12.80
2017-12-19T05:19:45.472Z,11.10
2017-12-19T05:22:13.061Z,11.57
2017-12-19T05:24:40.627Z,12.13
2017-12-19T05:27:08.236Z,11.07
2017-12-19T05:29:36.559Z,11.45
2017-12-19T05:32:04.118Z,13.25
2017-12-19T05:34:32.519Z,11.23
2017-12-19T05:37:00.075Z,12.85
2017-12-19T05:39:28.433Z,12.55
2017-12-19T05:41:56.038Z,11.48
2017-12-19T05:44:23.615Z,12.43
2017-12-19T05:46:51.208Z,12.33
2017-12-19T05:49:18.771Z,11.12
2017-12-19T05:51:46.373Z,15.00
2017-12-19T05:54:13.959Z,12.43
2017-12-19T05:56:42.355Z,13.00
2017-12-19T05:59:09.924Z,12.75
2017-12-19T06:01:39.693Z,12.13
2017-12-19T06:04:07.267Z,12.82
2017-12-19T06:06:35.601Z,13.75
2017-12-19T06:09:03.207Z,12.73
2017-12-19T06:11:31.538Z,13.13
2017-12-19T06:13:59.096Z,12.45
2017-12-19T06:16:26.688Z,12.50
2017-12-19T06:18:54.245Z,12.32
2017-12-19T06:21:21.852Z,10.73
2017-12-19T06:23:49.403Z,11.95
2017-12-19T06:26:16.967Z,12.15
2017-12-19T06:28:44.546Z,11.10
2017-12-19T06:31:12.130Z,12.90
2017-12-19T06:33:39.727Z,13.05
2017-12-19T06:36:07.301Z,11.55
2017-12-19T06:38:34.878Z,14.60
2017-12-19T06:41:02.463Z,11.25
2017-12-19T06:43:30.029Z,10.48
2017-12-19T06:45:57.598Z,10.75
2017-12-19T06:48:25.196Z,9.30
2017-12-19T06:50:53.525Z,11.70
2017-12-19T06:53:21.082Z,11.63
2017-12-19T06:55:48.671Z,12.18
2017-12-19T06:58:16.233Z,12.15
2017-12-19T07:00:44.096Z,10.85
2017-12-19T07:03:11.721Z,12.25
2017-12-19T07:05:39.277Z,12.70
2017-12-19T07:08:06.873Z,11.40
2017-12-19T07:10:34.434Z,11.52
2017-12-19T07:13:02.015Z,12.48
2017-12-19T07:15:29.606Z,11.00
2017-12-19T07:17:57.170Z,10.18
2017-12-19T07:20:24.723Z,12.00
2017-12-19T07:22:53.078Z,12.35
2017-12-19T07:25:20.660Z,12.85
2017-12-19T07:27:48.982Z,11.27
2017-12-19T07:30:16.577Z,11.55
2017-12-19T07:32:44.139Z,10.82
2017-12-19T07:35:11.718Z,12.43
2017-12-19T07:37:39.301Z,12.37
2017-12-19T07:40:06.873Z,12.50
2017-12-19T07:42:34.439Z,12.98
2017-12-19T07:45:02.032Z,12.13
2017-12-19T07:47:29.595Z,12.68
2017-12-19T07:49:57.155Z,11.40
2017-12-19T07:52:24.749Z,11.10
2017-12-19T07:54:53.062Z,12.02
2017-12-19T07:57:20.615Z,10.60
2017-12-19T07:59:48.203Z,12.30
2017-12-19T08:02:15.755Z,11.43
2017-12-19T08:04:43.312Z,11.65
2017-12-19T08:07:10.929Z,12.35
2017-12-19T08:09:39.251Z,10.95
2017-12-19T08:12:06.878Z,11.55
2017-12-19T08:14:34.440Z,11.65
2017-12-19T08:17:02.002Z,11.23
2017-12-19T08:19:29.595Z,11.57
2017-12-19T08:21:57.250Z,12.10
2017-12-19T08:24:24.807Z,10.93
2017-12-19T08:26:52.394Z,12.07
2017-12-19T08:29:19.950Z,13.15
2017-12-19T08:31:47.519Z,11.35
2017-12-19T08:34:15.134Z,10.30
2017-12-19T08:36:42.691Z,12.35
2017-12-19T08:39:10.291Z,11.75
2017-12-19T08:41:37.878Z,12.68
2017-12-19T08:44:05.431Z,11.00
2017-12-19T08:46:32.991Z,12.27
2017-12-19T08:49:00.576Z,13.00
2017-12-19T08:51:28.173Z,12.83
2017-12-19T08:53:55.734Z,12.20
2017-12-19T08:56:23.345Z,13.10
2017-12-19T08:58:50.887Z,12.67
2017-12-19T09:01:18.470Z,12.73
2017-12-19T09:03:46.072Z,11.90
2017-12-19T09:06:13.622Z,12.50
2017-12-19T09:08:41.212Z,14.20
2017-12-19T09:11:08.823Z,15.93
2017-12-19T09:13:37.185Z,15.40
2017-12-19T09:16:05.539Z,16.30
2017-12-19T09:18:33.090Z,14.43
2017-12-19T09:21:00.691Z,14.17
2017-12-19T09:23:28.239Z,13.57
2017-12-19T09:25:55.800Z,14.87
2017-12-19T09:28:23.380Z,12.67
2017-12-19T09:30:50.934Z,13.23
2017-12-19T09:33:18.478Z,15.47
2017-12-19T09:35:46.823Z,13.70
2017-12-19T09:38:14.390Z,12.93
2017-12-19T09:40:41.948Z,15.17
2017-12-19T09:43:09.539Z,14.77
2017-12-19T09:45:37.118Z,14.17
2017-12-19T09:48:05.446Z,12.03
2017-12-19T09:50:32.991Z,14.67
2017-12-19T09:53:00.572Z,12.80
2017-12-19T09:55:28.119Z,13.83
2017-12-19T09:57:55.669Z,15.77
2017-12-19T10:00:23.246Z,15.97
2017-12-19T10:02:50.807Z,16.17
2017-12-19T10:05:18.366Z,18.47
2017-12-19T10:07:45.955Z,15.93
2017-12-19T10:10:13.515Z,14.30
2017-12-19T10:12:41.062Z,15.20
2017-12-19T10:15:08.651Z,14.60
2017-12-19T10:17:36.238Z,15.03
2017-12-19T10:20:04.562Z,15.17
2017-12-19T10:22:32.151Z,14.13
2017-12-19T10:24:59.703Z,15.60
2017-12-19T10:27:27.258Z,16.67
2017-12-19T10:29:54.839Z,16.83
2017-12-19T10:32:22.382Z,16.57
2017-12-19T10:34:49.935Z,15.83
2017-12-19T10:37:17.519Z,15.63
2017-12-19T10:39:45.869Z,16.00
2017-12-19T10:42:13.513Z,15.20
2017-12-19T10:44:41.094Z,16.57
2017-12-19T10:47:08.643Z,17.67
2017-12-19T10:49:36.194Z,17.90
2017-12-19T10:52:03.779Z,16.33
2017-12-19T10:54:31.332Z,16.50
2017-12-19T10:56:58.879Z,15.50
2017-12-19T10:59:26.452Z,17.43
2017-12-19T11:01:54.008Z,17.00
2017-12-19T11:04:21.599Z,16.57
2017-12-19T11:06:49.142Z,16.23
2017-12-19T11:09:16.687Z,17.07
2017-12-19T11:11:44.254Z,15.83
2017-12-19T11:14:12.318Z,14.87
2017-12-19T11:16:39.890Z,15.90
2017-12-19T11:19:07.446Z,15.10
2017-12-19T11:21:35.008Z,14.80
2017-12-19T11:24:02.618Z,14.70
2017-12-19T11:26:30.177Z,15.13
2017-12-19T11:28:58.501Z,13.90
2017-12-19T11:31:26.082Z,15.60
2017-12-19T11:33:53.651Z,16.50
2017-12-19T11:36:21.208Z,13.70
2017-12-19T11:38:48.800Z,16.50
2017-12-19T11:41:17.111Z,13.93
2017-12-19T11:43:44.761Z,14.30
2017-12-19T11:46:12.287Z,11.63
2017-12-19T11:48:40.598Z,12.97
2017-12-19T11:51:08.185Z,11.70
2017-12-19T11:53:35.742Z,10.93
2017-12-19T11:56:03.331Z,12.50
2017-12-19T11:58:30.888Z,12.40
2017-12-19T12:00:58.512Z,13.17
2017-12-19T12:03:26.087Z,15.50
2017-12-19T12:05:53.638Z,13.57
2017-12-19T12:08:21.192Z,12.83
2017-12-19T12:10:48.771Z,13.67
2017-12-19T12:13:16.355Z,13.80
2017-12-19T12:15:43.906Z,14.53
2017-12-19T12:18:11.473Z,13.17
2017-12-19T12:20:39.058Z,12.63
2017-12-19T12:23:07.413Z,13.20
2017-12-19T12:25:34.959Z,11.20
2017-12-19T12:28:02.546Z,12.37
2017-12-19T12:30:30.139Z,11.03
2017-12-19T12:32:57.690Z,11.60
2017-12-19T12:35:25.243Z,13.00
2017-12-19T12:37:53.586Z,12.07
2017-12-19T12:40:21.385Z,11.83
2017-12-19T12:42:48.935Z,11.67
2017-12-19T12:45:16.519Z,12.00
2017-12-19T12:47:44.074Z,10.30
2017-12-19T12:50:11.667Z,11.87
2017-12-19T12:52:39.215Z,13.13
2017-12-19T12:55:06.765Z,12.13
2017-12-19T12:57:34.351Z,12.70
2017-12-19T13:00:01.899Z,11.63
2017-12-19T13:02:29.454Z,12.97
2017-12-19T13:04:57.030Z,12.50
2017-12-19T13:07:24.579Z,12.83
2017-12-19T13:09:52.156Z,12.30
2017-12-19T13:12:19.747Z,10.80
2017-12-19T13:14:47.294Z,11.37
2017-12-19T13:17:14.895Z,11.20
2017-12-19T13:19:43.235Z,12.53
2017-12-19T13:22:10.799Z,11.10
2017-12-19T13:24:38.379Z,11.90
2017-12-19T13:27:05.943Z,12.17
2017-12-19T13:29:33.552Z,13.33
2017-12-19T13:32:01.129Z,12.70
2017-12-19T13:34:28.679Z,12.30
2017-12-19T13:36:56.259Z,13.90
2017-12-19T13:39:23.816Z,14.33
2017-12-19T13:41:51.370Z,13.87
2017-12-19T13:44:18.947Z,14.07
2017-12-19T13:46:46.494Z,14.50
2017-12-19T13:49:14.826Z,14.93
2017-12-19T13:51:43.237Z,13.40
2017-12-19T13:54:11.060Z,14.70
2017-12-19T13:56:39.372Z,15.27
2017-12-19T13:59:07.019Z,13.90
2017-12-19T14:01:34.570Z,14.33
2017-12-19T14:04:02.159Z,13.10
2017-12-19T14:06:29.765Z,14.97
2017-12-19T14:08:57.342Z,13.47
2017-12-19T14:11:25.656Z,14.73
2017-12-19T14:13:53.235Z,12.67
2017-12-19T14:16:20.994Z,15.37
2017-12-19T14:18:48.559Z,13.40
2017-12-19T14:21:16.135Z,13.87
2017-12-19T14:23:44.458Z,13.97
2017-12-19T14:26:12.787Z,14.80
2017-12-19T14:28:40.399Z,13.87
2017-12-19T14:31:07.967Z,14.77
2017-12-19T14:33:35.531Z,12.10
2017-12-19T14:36:03.119Z,12.27
2017-12-19T14:38:30.666Z,13.40
2017-12-19T14:40:58.242Z,13.10
2017-12-19T14:43:25.798Z,10.53
2017-12-19T14:45:53.348Z,9.90
2017-12-19T14:48:20.930Z,7.27
2017-12-19T14:50:48.493Z,9.47
2017-12-19T14:53:17.662Z,11.70
2017-12-19T14:55:45.247Z,11.70
2017-12-19T14:58:12.811Z,12.03
2017-12-19T15:00:43.258Z,14.27
2017-12-19T15:03:10.834Z,13.00
2017-12-19T15:05:39.152Z,13.40
2017-12-19T15:08:07.558Z,14.40
2017-12-19T15:10:35.142Z,14.20
2017-12-19T15:13:02.699Z,14.60
2017-12-19T15:15:30.255Z,13.70
2017-12-19T15:17:57.835Z,14.30
2017-12-19T15:20:26.162Z,14.83
2017-12-19T15:22:53.706Z,14.53
2017-12-19T15:25:21.288Z,15.27
2017-12-19T15:27:48.834Z,15.40
2017-12-19T15:30:16.383Z,15.13
2017-12-19T15:32:44.601Z,15.23
2017-12-19T15:35:12.946Z,14.60
2017-12-19T15:37:40.521Z,14.40
2017-12-19T15:40:08.096Z,15.80
2017-12-19T15:42:35.658Z,16.53
2017-12-19T15:45:03.267Z,15.60
2017-12-19T15:47:30.860Z,15.77
2017-12-19T15:49:58.422Z,14.70
2017-12-19T15:52:26.046Z,13.93
2017-12-19T15:54:54.366Z,13.57
2017-12-19T15:57:21.953Z,16.60
2017-12-19T15:59:49.524Z,17.20
2017-12-19T16:02:17.093Z,18.10
2017-12-19T16:04:45.441Z,17.10
2017-12-19T16:07:12.987Z,19.00
2017-12-19T16:09:40.549Z,17.13
2017-12-19T16:12:08.198Z,19.23
2017-12-19T16:14:35.750Z,19.63
2017-12-19T16:17:03.323Z,17.47
2017-12-19T16:19:30.930Z,19.50
2017-12-19T16:21:58.479Z,16.93
2017-12-19T16:24:26.030Z,19.53
2017-12-19T16:26:53.638Z,17.40
2017-12-19T16:29:21.192Z,18.40
2017-12-19T16:31:49.507Z,18.73
2017-12-19T16:34:17.095Z,17.33
2017-12-19T16:36:44.731Z,16.73
2017-12-19T16:39:12.290Z,19.87
2017-12-19T16:41:39.881Z,19.15
2017-12-19T16:44:07.439Z,18.60
2017-12-19T16:46:34.998Z,19.73
2017-12-19T16:49:02.593Z,19.83
2017-12-19T16:51:30.901Z,22.10
2017-12-19T16:53:58.459Z,18.90
2017-12-19T16:56:26.052Z,21.80
2017-12-19T16:58:53.615Z,16.83
2017-12-19T17:01:21.176Z,20.30
2017-12-19T17:03:48.771Z,22.73
2017-12-19T17:06:17.083Z,24.50
2017-12-19T17:08:44.649Z,16.95
2017-12-19T17:11:12.254Z,17.75
2017-12-19T17:13:39.808Z,17.30
2017-12-19T17:16:07.436Z,18.08
2017-12-19T17:18:34.990Z,15.30
2017-12-19T17:21:02.603Z,18.10
2017-12-19T17:23:30.923Z,20.62
2017-12-19T17:25:58.496Z,16.17
2017-12-19T17:28:26.090Z,17.00
2017-12-19T17:30:53.642Z,16.60
2017-12-19T17:33:21.194Z,19.20
2017-12-19T17:35:48.778Z,19.23
2017-12-19T17:38:16.372Z,21.23
2017-12-19T17:40:44.171Z,20.77
2017-12-19T17:43:11.726Z,21.87
2017-12-19T17:45:39.285Z,22.67
2017-12-19T17:48:06.914Z,22.02
2017-12-19T17:50:35.269Z,19.47
2017-12-19T17:53:02.850Z,19.73
2017-12-19T17:55:31.204Z,19.83
2017-12-19T17:57:58.764Z,19.37
2017-12-19T18:00:26.338Z,21.33
2017-12-19T18:02:54.710Z,16.87
2017-12-19T18:05:22.298Z,17.33
2017-12-19T18:07:49.873Z,17.17
2017-12-19T18:10:17.487Z,14.23
2017-12-19T18:12:45.066Z,15.77
2017-12-19T18:15:13.427Z,17.53
2017-12-19T18:17:40.993Z,16.43
2017-12-19T18:20:08.578Z,16.50
2017-12-19T18:22:36.923Z,15.33
2017-12-19T18:25:04.523Z,16.12
2017-12-19T18:27:32.082Z,16.67
2017-12-19T18:29:59.707Z,16.85
2017-12-19T18:32:27.274Z,19.45
2017-12-19T18:34:54.858Z,17.83
2017-12-19T18:37:22.452Z,15.67
2017-12-19T18:39:50.123Z,17.23
2017-12-19T18:42:17.728Z,15.63
2017-12-19T18:44:45.280Z,16.60
2017-12-19T18:47:12.846Z,17.27
2017-12-19T18:49:40.529Z,16.98
2017-12-19T18:52:08.872Z,19.10
2017-12-19T18:54:36.439Z,20.40
2017-12-19T18:57:04.051Z,18.42
2017-12-19T18:59:31.620Z,17.45
2017-12-19T19:01:59.174Z,19.25
2017-12-19T19:04:26.786Z,20.15
2017-12-19T19:06:54.369Z,19.87
2017-12-19T19:09:22.709Z,18.70
2017-12-19T19:11:51.082Z,19.45
2017-12-19T19:14:18.669Z,19.37
2017-12-19T19:16:46.278Z,21.48
2017-12-19T19:19:13.850Z,19.92
2017-12-19T19:21:41.433Z,21.50
2017-12-19T19:24:09.073Z,21.27
2017-12-19T19:26:36.784Z,22.80
2017-12-19T19:29:05.903Z,19.50
2017-12-19T19:31:33.712Z,22.00
2017-12-19T19:34:01.332Z,21.40
2017-12-19T19:36:29.261Z,20.58
2017-12-19T19:38:57.129Z,19.90
2017-12-19T19:41:25.788Z,20.90
2017-12-19T19:43:53.417Z,21.10
2017-12-19T19:46:21.110Z,21.75
2017-12-19T19:48:48.880Z,22.92
2017-12-19T19:51:16.721Z,23.95
2017-12-19T19:53:44.824Z,19.12
2017-12-19T19:56:13.738Z,22.02
2017-12-19T19:58:42.744Z,23.70
2017-12-19T20:01:10.994Z,20.67
2017-12-19T20:03:39.904Z,20.05
2017-12-19T20:06:08.364Z,21.42
2017-12-19T20:08:36.796Z,19.52
2017-12-19T20:11:05.322Z,20.90
2017-12-19T20:13:33.754Z,23.48
2017-12-19T20:16:02.207Z,20.40
2017-12-19T20:18:30.553Z,22.37
2017-12-19T20:20:59.633Z,22.23
2017-12-19T20:23:27.988Z,19.87
2017-12-19T20:25:56.251Z,22.97
2017-12-19T20:28:24.765Z,21.25
2017-12-19T20:30:54.851Z,21.15
2017-12-19T20:33:23.182Z,19.70
2017-12-19T20:35:51.536Z,21.85
2017-12-19T20:38:19.719Z,24.87
2017-12-19T20:40:47.892Z,20.90
2017-12-19T20:43:16.224Z,22.58
2017-12-19T20:45:44.279Z,24.40
2017-12-19T20:48:12.306Z,21.27
2017-12-19T20:50:40.489Z,19.33
2017-12-19T20:53:08.807Z,20.95
2017-12-19T20:55:36.727Z,19.35
2017-12-19T20:58:04.499Z,20.95
2017-12-19T21:00:32.174Z,20.52
2017-12-19T21:02:59.996Z,21.17
2017-12-19T21:05:27.769Z,20.30
2017-12-19T21:07:55.541Z,22.80
2017-12-19T21:10:23.301Z,19.15
2017-12-19T21:12:51.663Z,19.50
2017-12-19T21:15:19.354Z,19.25
2017-12-19T21:17:47.867Z,19.07
2017-12-19T21:20:15.467Z,18.90
2017-12-19T21:22:43.015Z,17.60
2017-12-19T21:25:10.626Z,18.20
2017-12-19T21:27:38.964Z,17.77
2017-12-19T21:30:06.549Z,19.10
2017-12-19T21:32:34.931Z,19.60
2017-12-19T21:35:02.506Z,17.47
2017-12-19T21:37:30.842Z,19.10
2017-12-19T21:39:59.219Z,18.50
2017-12-19T21:42:26.800Z,18.43
2017-12-19T21:44:54.376Z,18.13
2017-12-19T21:47:22.723Z,17.10
2017-12-19T21:49:50.266Z,19.47
2017-12-19T21:52:17.874Z,17.73
2017-12-19T21:54:45.447Z,17.67
2017-12-19T21:57:13.033Z,17.13
2017-12-19T21:59:40.634Z,20.03
2017-12-19T22:02:08.264Z,17.90
2017-12-19T22:04:35.849Z,19.23
2017-12-19T22:07:03.492Z,17.37
2017-12-19T22:09:31.074Z,18.47
2017-12-19T22:11:58.669Z,17.20
2017-12-19T22:14:27.041Z,17.37
2017-12-19T22:16:54.610Z,14.57
2017-12-19T22:19:22.941Z,14.80
2017-12-19T22:21:50.542Z,17.30
2017-12-19T22:24:19.039Z,16.63
2017-12-19T22:26:47.366Z,17.20
2017-12-19T22:29:14.956Z,15.93
2017-12-19T22:31:42.533Z,16.60
2017-12-19T22:34:11.199Z,14.67
2017-12-19T22:36:38.897Z,18.30
2017-12-19T22:39:06.486Z,15.30
2017-12-19T22:41:34.075Z,14.80
2017-12-19T22:44:01.654Z,15.40
2017-12-19T22:46:29.217Z,13.67
2017-12-19T22:48:57.579Z,12.57
2017-12-19T22:51:25.173Z,13.73
2017-12-19T22:53:53.510Z,13.63
2017-12-19T22:56:21.134Z,11.87
2017-12-19T22:58:48.763Z,12.60
2017-12-19T23:01:16.323Z,11.97
2017-12-19T23:03:43.907Z,12.83
2017-12-19T23:06:11.492Z,12.20
2017-12-19T23:08:39.066Z,13.57
2017-12-19T23:11:06.667Z,11.57
2017-12-19T23:13:34.988Z,13.70
2017-12-19T23:16:02.568Z,12.70
2017-12-19T23:18:30.162Z,14.13
2017-12-19T23:20:57.733Z,13.73
2017-12-19T23:23:26.061Z,12.10
2017-12-19T23:25:53.640Z,13.40
2017-12-19T23:28:21.225Z,13.60
2017-12-19T23:30:49.542Z,12.60
2017-12-19T23:33:17.118Z,11.77
2017-12-19T23:35:44.690Z,12.90
2017-12-19T23:38:12.312Z,11.33
2017-12-19T23:40:39.901Z,12.77
2017-12-19T23:43:07.663Z,13.23
2017-12-19T23:45:35.261Z,14.70
2017-12-19T23:48:02.836Z,12.80
2017-12-19T23:50:31.190Z,14.40
2017-12-19T23:52:58.776Z,14.70
2017-12-19T23:55:27.120Z,14.23
2017-12-19T23:57:54.778Z,15.30
